createdAt,value
2018-03-14T00:01:54.059Z,0.00
2018-03-14T00:02:53.941Z,0.00
2018-03-14T00:03:54.208Z,0.00
2018-03-14T00:04:53.896Z,0.00
2018-03-14T00:05:53.977Z,0.00
2018-03-14T00:07:53.676Z,0.00
2018-03-14T00:08:53.603Z,0.00
2018-03-14T00:09:53.883Z,0.00
2018-03-14T00:11:53.543Z,0.00
2018-03-14T00:12:53.510Z,0.00
2018-03-14T00:13:53.588Z,0.00
2018-03-14T00:14:53.515Z,0.00
2018-03-14T00:15:53.749Z,0.00
2018-03-14T00:16:53.422Z,0.00
2018-03-14T00:17:53.401Z,0.00
2018-03-14T00:18:53.373Z,0.00
2018-03-14T00:19:53.407Z,0.00
2018-03-14T00:20:53.326Z,0.00
2018-03-14T00:21:53.689Z,0.00
2018-03-14T00:22:53.319Z,0.00
2018-03-14T00:23:53.335Z,0.00
2018-03-14T00:24:53.244Z,0.00
2018-03-14T00:25:53.266Z,0.00
2018-03-14T00:26:53.198Z,0.00
2018-03-14T00:27:53.464Z,0.00
2018-03-14T00:28:53.142Z,0.00
2018-03-14T00:29:53.217Z,0.00
2018-03-14T00:30:53.094Z,0.00
2018-03-14T00:31:53.123Z,0.00
2018-03-14T00:32:53.053Z,0.00
2018-03-14T00:34:53.295Z,0.00
2018-03-14T00:35:53.001Z,0.00
2018-03-14T00:36:52.957Z,0.00
2018-03-14T00:38:52.973Z,0.00
2018-03-14T00:39:52.889Z,0.00
2018-03-14T00:40:52.949Z,0.00
2018-03-14T00:41:53.148Z,0.00
2018-03-14T00:42:52.827Z,0.00
2018-03-14T00:43:52.820Z,0.00
2018-03-14T00:45:52.813Z,0.00
2018-03-14T00:46:52.884Z,0.00
2018-03-14T00:47:52.722Z,0.00
2018-03-14T00:48:53.175Z,0.00
2018-03-14T00:49:52.675Z,0.00
2018-03-14T00:50:52.646Z,0.00
2018-03-14T00:51:52.746Z,0.00
2018-03-14T00:52:52.724Z,0.00
2018-03-14T00:53:52.602Z,0.00
2018-03-14T00:54:52.599Z,0.00
2018-03-14T00:55:52.921Z,0.00
2018-03-14T00:56:52.585Z,0.00
2018-03-14T00:57:52.619Z,0.00
2018-03-14T00:58:52.689Z,0.00
2018-03-14T00:59:52.429Z,0.00
2018-03-14T01:01:52.699Z,0.00
2018-03-14T01:02:52.403Z,0.00
2018-03-14T01:03:52.397Z,0.00
2018-03-14T01:04:52.323Z,0.00
2018-03-14T01:05:52.319Z,0.00
2018-03-14T01:06:52.329Z,0.00
2018-03-14T01:07:52.445Z,0.00
2018-03-14T01:08:52.535Z,0.00
2018-03-14T01:09:52.263Z,0.00
2018-03-14T01:10:52.202Z,0.00
2018-03-14T01:11:52.169Z,0.00
2018-03-14T01:12:52.142Z,0.00
2018-03-14T01:13:52.126Z,0.00
2018-03-14T01:14:52.150Z,0.00
2018-03-14T01:15:52.426Z,0.00
2018-03-14T01:16:52.053Z,0.00
2018-03-14T01:17:52.034Z,0.00
2018-03-14T01:18:52.009Z,0.00
2018-03-14T01:19:51.986Z,0.00
2018-03-14T01:20:51.959Z,0.00
2018-03-14T01:21:52.289Z,0.00
2018-03-14T01:22:52.020Z,0.00
2018-03-14T01:23:51.900Z,0.00
2018-03-14T01:24:51.873Z,0.00
2018-03-14T01:25:51.856Z,0.00
2018-03-14T01:28:52.237Z,0.00
2018-03-14T01:29:51.759Z,0.00
2018-03-14T01:30:51.840Z,0.00
2018-03-14T01:31:51.711Z,0.00
2018-03-14T01:32:51.690Z,0.00
2018-03-14T01:37:51.920Z,0.00
2018-03-14T01:38:51.657Z,0.00
2018-03-14T01:39:51.609Z,0.00
2018-03-14T01:40:51.501Z,0.00
2018-03-14T01:41:51.480Z,0.00
2018-03-14T01:42:51.535Z,0.00
2018-03-14T01:43:51.828Z,0.00
2018-03-14T01:44:51.493Z,0.00
2018-03-14T01:45:51.393Z,0.00
2018-03-14T01:46:51.371Z,0.00
2018-03-14T01:47:51.345Z,0.00
2018-03-14T01:48:51.322Z,0.00
2018-03-14T01:49:51.730Z,0.00
2018-03-14T01:52:51.323Z,0.00
2018-03-14T01:54:51.188Z,0.00
2018-03-14T01:55:51.268Z,0.00
2018-03-14T01:56:51.439Z,0.00
2018-03-14T01:57:51.118Z,0.00
2018-03-14T01:58:51.100Z,0.00
2018-03-14T01:59:51.071Z,0.00
2018-03-14T02:00:51.046Z,0.00
2018-03-14T02:01:51.073Z,0.00
2018-03-14T02:02:51.020Z,0.00
2018-03-14T02:03:51.280Z,0.00
2018-03-14T02:04:50.961Z,0.00
2018-03-14T02:05:51.035Z,0.00
2018-03-14T02:06:50.929Z,0.00
2018-03-14T02:07:50.942Z,0.00
2018-03-14T02:08:50.864Z,0.00
2018-03-14T02:09:50.843Z,0.00
2018-03-14T02:10:51.130Z,0.00
2018-03-14T02:11:50.799Z,0.00
2018-03-14T02:12:50.783Z,0.00
2018-03-14T02:13:50.806Z,0.00
2018-03-14T02:15:50.791Z,0.00
2018-03-14T02:16:50.759Z,0.00
2018-03-14T02:17:51.035Z,0.00
2018-03-14T02:18:50.715Z,0.00
2018-03-14T02:19:50.669Z,0.00
2018-03-14T02:20:50.582Z,0.00
2018-03-14T02:21:50.645Z,0.00
2018-03-14T02:22:50.541Z,0.00
2018-03-14T02:23:50.520Z,0.00
2018-03-14T02:24:50.803Z,0.00
2018-03-14T02:25:50.527Z,0.00
2018-03-14T02:26:50.465Z,0.00
2018-03-14T02:27:50.434Z,0.00
2018-03-14T02:28:50.487Z,0.00
2018-03-14T02:29:50.381Z,0.00
2018-03-14T02:30:50.484Z,0.00
2018-03-14T02:31:50.908Z,0.00
2018-03-14T02:32:50.417Z,0.00
2018-03-14T02:33:50.391Z,0.00
2018-03-14T02:34:50.274Z,0.00
2018-03-14T02:35:50.267Z,0.00
2018-03-14T02:36:50.270Z,0.00
2018-03-14T02:37:50.247Z,0.00
2018-03-14T02:38:50.554Z,0.00
2018-03-14T02:40:50.129Z,0.00
2018-03-14T02:42:50.082Z,0.00
2018-03-14T02:44:50.537Z,0.00
2018-03-14T02:45:50.028Z,0.00
2018-03-14T02:46:50.003Z,0.00
2018-03-14T02:47:50.091Z,0.00
2018-03-14T02:48:50.071Z,0.00
2018-03-14T02:49:50.042Z,0.00
2018-03-14T02:50:50.394Z,0.00
2018-03-14T02:51:50.016Z,0.00
2018-03-14T02:54:49.817Z,0.00
2018-03-14T02:55:49.885Z,0.00
2018-03-14T02:56:50.106Z,0.00
2018-03-14T02:58:49.718Z,0.00
2018-03-14T02:59:49.695Z,0.00
2018-03-14T03:00:49.675Z,0.00
2018-03-14T03:01:49.643Z,0.00
2018-03-14T03:02:49.975Z,0.00
2018-03-14T03:03:49.596Z,0.00
2018-03-14T03:04:49.573Z,0.00
2018-03-14T03:05:49.550Z,0.00
2018-03-14T03:06:49.526Z,0.00
2018-03-14T03:08:49.835Z,0.00
2018-03-14T03:09:49.454Z,0.00
2018-03-14T03:10:49.520Z,0.00
2018-03-14T03:11:49.503Z,0.00
2018-03-14T03:12:49.481Z,0.00
2018-03-14T03:13:49.453Z,0.00
2018-03-14T03:14:49.775Z,0.00
2018-03-14T03:15:49.402Z,0.00
2018-03-14T03:16:49.383Z,0.00
2018-03-14T03:17:49.357Z,0.00
2018-03-14T03:18:49.255Z,0.00
2018-03-14T03:19:49.251Z,0.00
2018-03-14T03:20:49.573Z,0.00
2018-03-14T03:22:49.278Z,0.00
2018-03-14T03:23:49.134Z,0.00
2018-03-14T03:25:49.171Z,0.00
2018-03-14T03:26:49.198Z,0.00
2018-03-14T03:27:49.336Z,0.00
2018-03-14T03:28:49.068Z,0.00
2018-03-14T03:29:48.996Z,0.00
2018-03-14T03:30:48.974Z,0.00
2018-03-14T03:31:48.955Z,0.00
2018-03-14T03:32:48.980Z,0.00
2018-03-14T03:33:48.903Z,0.00
2018-03-14T03:34:49.230Z,0.00
2018-03-14T03:35:48.857Z,0.00
2018-03-14T03:36:48.846Z,0.00
2018-03-14T03:38:48.838Z,0.00
2018-03-14T03:39:48.766Z,0.00
2018-03-14T03:40:48.746Z,0.00
2018-03-14T03:41:49.036Z,0.00
2018-03-14T03:42:48.704Z,0.00
2018-03-14T03:43:48.681Z,0.00
2018-03-14T03:44:48.702Z,0.00
2018-03-14T03:45:48.731Z,0.00
2018-03-14T03:46:48.621Z,0.00
2018-03-14T03:47:48.596Z,0.00
2018-03-14T03:48:48.862Z,0.00
2018-03-14T03:49:48.538Z,0.00
2018-03-14T03:50:48.581Z,0.00
2018-03-14T03:51:48.492Z,0.00
2018-03-14T03:52:48.480Z,0.00
2018-03-14T03:53:48.451Z,0.00
2018-03-14T03:54:48.419Z,0.00
2018-03-14T03:55:48.698Z,0.00
2018-03-14T03:56:48.439Z,0.00
2018-03-14T03:58:48.405Z,0.00
2018-03-14T03:59:48.385Z,0.00
2018-03-14T04:00:48.280Z,0.00
2018-03-14T04:01:48.258Z,0.00
2018-03-14T04:02:48.585Z,0.00
2018-03-14T04:03:48.210Z,0.00
2018-03-14T04:04:48.185Z,0.00
2018-03-14T04:05:48.165Z,0.00
2018-03-14T04:06:48.141Z,0.00
2018-03-14T04:07:48.121Z,0.00
2018-03-14T04:08:48.449Z,0.00
2018-03-14T04:09:48.075Z,0.00
2018-03-14T04:10:48.058Z,0.00
2018-03-14T04:11:48.107Z,0.00
2018-03-14T04:13:48.065Z,0.00
2018-03-14T04:14:48.090Z,0.00
2018-03-14T04:15:48.229Z,0.00
2018-03-14T04:16:47.914Z,0.00
2018-03-14T04:17:47.887Z,0.00
2018-03-14T04:18:47.877Z,0.00
2018-03-14T04:20:47.870Z,0.00
2018-03-14T04:21:47.795Z,0.00
2018-03-14T04:22:48.070Z,0.00
2018-03-14T04:23:47.749Z,0.00
2018-03-14T04:24:47.724Z,0.00
2018-03-14T04:25:47.781Z,0.00
2018-03-14T04:26:48.143Z,0.00
2018-03-14T04:27:47.658Z,0.00
2018-03-14T04:28:47.939Z,0.00
2018-03-14T04:29:47.615Z,0.00
2018-03-14T04:30:47.607Z,0.00
2018-03-14T04:31:47.674Z,0.00
2018-03-14T04:32:47.754Z,0.00
2018-03-14T04:33:47.651Z,0.00
2018-03-14T04:34:47.886Z,0.00
2018-03-14T04:35:47.794Z,0.00
2018-03-14T04:36:47.544Z,0.00
2018-03-14T04:37:47.553Z,0.00
2018-03-14T04:38:47.678Z,0.00
2018-03-14T04:39:47.462Z,0.00
2018-03-14T04:40:47.739Z,0.00
2018-03-14T04:41:47.433Z,0.00
2018-03-14T04:42:47.415Z,0.00
2018-03-14T04:43:47.293Z,0.00
2018-03-14T04:44:47.311Z,0.00
2018-03-14T04:45:47.255Z,0.00
2018-03-14T04:46:47.487Z,0.00
2018-03-14T04:47:47.887Z,0.00
2018-03-14T04:48:47.173Z,0.00
2018-03-14T04:49:47.164Z,0.00
2018-03-14T04:50:47.191Z,0.00
2018-03-14T04:51:47.107Z,0.00
2018-03-14T04:52:47.145Z,0.00
2018-03-14T04:53:47.160Z,0.00
2018-03-14T04:54:47.336Z,0.00
2018-03-14T04:55:47.025Z,0.00
2018-03-14T04:56:47.050Z,0.00
2018-03-14T04:57:46.968Z,0.00
2018-03-14T04:58:46.946Z,0.00
2018-03-14T04:59:46.936Z,0.00
2018-03-14T05:00:46.896Z,0.00
2018-03-14T05:01:47.173Z,0.00
2018-03-14T05:02:46.908Z,0.00
2018-03-14T05:03:46.834Z,0.00
2018-03-14T05:04:46.806Z,0.00
2018-03-14T05:05:46.778Z,0.00
2018-03-14T05:06:46.755Z,0.00
2018-03-14T05:07:46.762Z,0.00
2018-03-14T05:08:47.155Z,0.00
2018-03-14T05:09:46.776Z,0.00
2018-03-14T05:10:46.674Z,0.00
2018-03-14T05:11:46.649Z,4.00
2018-03-14T05:12:46.624Z,4.00
2018-03-14T05:13:46.627Z,0.00
2018-03-14T05:14:46.644Z,4.00
2018-03-14T05:15:46.852Z,4.00
2018-03-14T05:16:46.522Z,4.00
2018-03-14T05:18:46.485Z,4.00
2018-03-14T05:19:46.462Z,4.00
2018-03-14T05:20:46.486Z,8.00
2018-03-14T05:21:46.502Z,8.00
2018-03-14T05:22:48.195Z,8.00
2018-03-14T05:23:46.381Z,12.00
2018-03-14T05:24:46.352Z,12.00
2018-03-14T05:25:46.338Z,16.00
2018-03-14T05:26:46.511Z,20.00
2018-03-14T05:27:46.277Z,20.00
2018-03-14T05:28:46.262Z,24.00
2018-03-14T05:29:46.529Z,28.00
2018-03-14T05:30:46.219Z,32.00
2018-03-14T05:31:46.250Z,32.00
2018-03-14T05:32:46.210Z,36.00
2018-03-14T05:33:46.234Z,36.00
2018-03-14T05:34:46.117Z,40.00
2018-03-14T05:35:46.503Z,44.00
2018-03-14T05:36:46.082Z,44.00
2018-03-14T05:37:46.049Z,48.00
2018-03-14T05:38:46.150Z,52.00
2018-03-14T05:39:46.085Z,56.00
2018-03-14T05:40:46.065Z,64.00
2018-03-14T05:41:46.254Z,68.00
2018-03-14T05:42:45.924Z,72.00
2018-03-14T05:43:45.911Z,80.00
2018-03-14T05:44:45.940Z,96.00
2018-03-14T05:45:47.241Z,112.00
2018-03-14T05:46:46.219Z,120.00
2018-03-14T05:47:46.171Z,128.00
2018-03-14T05:48:45.873Z,132.00
2018-03-14T05:50:45.841Z,168.00
2018-03-14T05:51:45.834Z,188.00
2018-03-14T05:52:45.716Z,208.00
2018-03-14T05:53:46.026Z,228.00
2018-03-14T05:54:45.826Z,244.00
2018-03-14T05:55:46.050Z,256.00
2018-03-14T05:56:46.398Z,280.00
2018-03-14T05:58:46.306Z,312.00
2018-03-14T06:00:45.813Z,344.00
2018-03-14T06:01:45.590Z,356.00
2018-03-14T06:02:45.524Z,376.00
2018-03-14T06:03:45.533Z,392.00
2018-03-14T06:05:45.394Z,396.00
2018-03-14T06:06:45.373Z,408.00
2018-03-14T06:07:45.651Z,416.00
2018-03-14T06:08:45.383Z,408.00
2018-03-14T06:09:45.322Z,392.00
2018-03-14T06:10:45.390Z,380.00
2018-03-14T06:11:45.288Z,372.00
2018-03-14T06:12:45.238Z,376.00
2018-03-14T06:13:45.337Z,408.00
2018-03-14T06:14:45.561Z,432.00
2018-03-14T06:15:45.178Z,448.00
2018-03-14T06:16:45.253Z,436.00
2018-03-14T06:17:45.136Z,424.00
2018-03-14T06:18:45.138Z,432.00
2018-03-14T06:19:45.087Z,448.00
2018-03-14T06:20:45.604Z,472.00
2018-03-14T06:21:45.335Z,504.00
2018-03-14T06:22:45.025Z,536.00
2018-03-14T06:23:45.275Z,544.00
2018-03-14T06:24:44.971Z,552.00
2018-03-14T06:25:44.994Z,564.00
2018-03-14T06:26:44.977Z,588.00
2018-03-14T06:27:44.961Z,608.00
2018-03-14T06:28:45.187Z,596.00
2018-03-14T06:29:44.856Z,660.00
2018-03-14T06:30:44.832Z,672.00
2018-03-14T06:31:44.817Z,716.00
2018-03-14T06:32:44.934Z,760.00
2018-03-14T06:33:44.869Z,796.00
2018-03-14T06:34:44.774Z,856.00
2018-03-14T06:35:45.026Z,912.00
2018-03-14T06:36:44.730Z,972.00
2018-03-14T06:37:44.673Z,1024.00
2018-03-14T06:38:44.702Z,1056.00
2018-03-14T06:39:44.631Z,1072.00
2018-03-14T06:40:44.605Z,1072.00
2018-03-14T06:41:44.578Z,1112.00
2018-03-14T06:42:44.858Z,1188.00
2018-03-14T06:43:44.534Z,1244.00
2018-03-14T06:44:44.559Z,1268.00
2018-03-14T06:45:44.489Z,1308.00
2018-03-14T06:46:44.468Z,1384.00
2018-03-14T06:47:44.527Z,1432.00
2018-03-14T06:48:44.416Z,1468.00
2018-03-14T06:49:44.775Z,1496.00
2018-03-14T06:50:44.426Z,1540.00
2018-03-14T06:51:44.361Z,1584.00
2018-03-14T06:52:44.332Z,1604.00
2018-03-14T06:53:44.306Z,1596.00
2018-03-14T06:54:44.286Z,1600.00
2018-03-14T06:55:44.559Z,1628.00
2018-03-14T06:56:44.285Z,1656.00
2018-03-14T06:57:44.219Z,1700.00
2018-03-14T06:58:44.215Z,1740.00
2018-03-14T06:59:44.248Z,1804.00
2018-03-14T07:00:44.146Z,1860.00
2018-03-14T07:01:44.131Z,1932.00
2018-03-14T07:02:44.164Z,2000.00
2018-03-14T07:03:44.082Z,2052.00
2018-03-14T07:04:44.061Z,2092.00
2018-03-14T07:06:44.304Z,2212.00
2018-03-14T07:07:43.991Z,2232.00
2018-03-14T07:08:44.126Z,2220.00
2018-03-14T07:09:44.083Z,2220.00
2018-03-14T07:10:45.113Z,2244.00
2018-03-14T07:11:43.898Z,2304.00
2018-03-14T07:12:44.324Z,2400.00
2018-03-14T07:13:43.860Z,2472.00
2018-03-14T07:14:43.882Z,2576.00
2018-03-14T07:15:44.033Z,2624.00
2018-03-14T07:16:43.786Z,2612.00
2018-03-14T07:17:43.870Z,2572.00
2018-03-14T07:18:44.043Z,2560.00
2018-03-14T07:19:43.710Z,2576.00
2018-03-14T07:20:43.832Z,2620.00
2018-03-14T07:21:43.668Z,2716.00
2018-03-14T07:22:43.737Z,2844.00
2018-03-14T07:23:43.710Z,2944.00
2018-03-14T07:24:44.059Z,2960.00
2018-03-14T07:25:43.663Z,2920.00
2018-03-14T07:26:43.692Z,2904.00
2018-03-14T07:27:43.538Z,2936.00
2018-03-14T07:28:43.520Z,3000.00
2018-03-14T07:29:43.575Z,3116.00
2018-03-14T07:30:43.865Z,3224.00
2018-03-14T07:32:43.767Z,3248.00
2018-03-14T07:33:43.407Z,3240.00
2018-03-14T07:34:43.385Z,3288.00
2018-03-14T07:35:43.358Z,3320.00
2018-03-14T07:36:43.407Z,3340.00
2018-03-14T07:37:43.704Z,3360.00
2018-03-14T07:38:43.347Z,3412.00
2018-03-14T07:39:43.287Z,3432.00
2018-03-14T07:40:43.261Z,3448.00
2018-03-14T07:41:43.308Z,3456.00
2018-03-14T07:42:43.288Z,3292.00
2018-03-14T07:43:43.190Z,3380.00
2018-03-14T07:44:43.566Z,3348.00
2018-03-14T07:45:43.348Z,3424.00
2018-03-14T07:46:43.123Z,3348.00
2018-03-14T07:47:43.099Z,3260.00
2018-03-14T07:48:43.076Z,3252.00
2018-03-14T07:49:43.057Z,3280.00
2018-03-14T07:50:43.087Z,3236.00
2018-03-14T07:51:43.376Z,3244.00
2018-03-14T07:52:43.009Z,3280.00
2018-03-14T07:53:42.975Z,3240.00
2018-03-14T07:54:42.951Z,3420.00
2018-03-14T07:55:42.927Z,3628.00
2018-03-14T07:56:42.962Z,3300.00
2018-03-14T07:57:42.887Z,3172.00
2018-03-14T07:58:43.198Z,3632.00
2018-03-14T07:59:42.841Z,3344.00
2018-03-14T08:00:42.817Z,2952.00
2018-03-14T08:01:42.794Z,3216.00
2018-03-14T08:02:42.818Z,3284.00
2018-03-14T08:04:43.021Z,3744.00
2018-03-14T08:05:42.734Z,3312.00
2018-03-14T08:06:42.692Z,3452.00
2018-03-14T08:07:42.803Z,3192.00
2018-03-14T08:08:42.718Z,3176.00
2018-03-14T08:09:42.704Z,2856.00
2018-03-14T08:10:42.594Z,2756.00
2018-03-14T08:11:42.894Z,2784.00
2018-03-14T08:12:42.557Z,2988.00
2018-03-14T08:13:42.722Z,2572.00
2018-03-14T08:14:42.585Z,2540.00
2018-03-14T08:15:42.627Z,2680.00
2018-03-14T08:16:42.469Z,3360.00
2018-03-14T08:17:42.959Z,3860.00
2018-03-14T08:18:42.816Z,4304.00
2018-03-14T08:19:42.412Z,4640.00
2018-03-14T08:20:42.609Z,5008.00
2018-03-14T08:21:42.788Z,5656.00
2018-03-14T08:22:42.625Z,5968.00
2018-03-14T08:23:42.428Z,6144.00
2018-03-14T08:24:42.901Z,5732.00
2018-03-14T08:25:42.381Z,6012.00
2018-03-14T08:26:42.323Z,5676.00
2018-03-14T08:27:42.302Z,5648.00
2018-03-14T08:28:42.306Z,5268.00
2018-03-14T08:30:42.617Z,5356.00
2018-03-14T08:31:42.149Z,5048.00
2018-03-14T08:32:42.179Z,5044.00
2018-03-14T08:33:42.109Z,4332.00
2018-03-14T08:34:42.087Z,4476.00
2018-03-14T08:35:42.065Z,5776.00
2018-03-14T08:36:42.102Z,6680.00
2018-03-14T08:37:42.018Z,6864.00
2018-03-14T08:38:42.060Z,6892.00
2018-03-14T08:39:41.973Z,6216.00
2018-03-14T08:40:41.956Z,6028.00
2018-03-14T08:41:41.945Z,6764.00
2018-03-14T08:42:42.219Z,7012.00
2018-03-14T08:43:41.948Z,6664.00
2018-03-14T08:44:41.930Z,6980.00
2018-03-14T08:45:41.862Z,7852.00
2018-03-14T08:46:41.848Z,7360.00
2018-03-14T08:47:41.826Z,6844.00
2018-03-14T08:48:42.099Z,6168.00
2018-03-14T08:49:41.775Z,6408.00
2018-03-14T08:50:41.797Z,7312.00
2018-03-14T08:51:41.727Z,8120.00
2018-03-14T08:52:41.711Z,8368.00
2018-03-14T08:53:41.693Z,7896.00
2018-03-14T08:54:42.058Z,7140.00
2018-03-14T08:55:41.656Z,6156.00
2018-03-14T08:56:41.684Z,4976.00
2018-03-14T08:57:41.612Z,4328.00
2018-03-14T08:58:41.643Z,4648.00
2018-03-14T08:59:41.590Z,5188.00
2018-03-14T09:00:41.553Z,5644.00
2018-03-14T09:01:41.838Z,5804.00
2018-03-14T09:02:41.616Z,4916.00
2018-03-14T09:03:41.679Z,4596.00
2018-03-14T09:04:41.733Z,3924.00
2018-03-14T09:05:41.454Z,3428.00
2018-03-14T09:06:41.431Z,4016.00
2018-03-14T09:07:41.411Z,4036.00
2018-03-14T09:08:41.740Z,3836.00
2018-03-14T09:09:41.376Z,3616.00
2018-03-14T09:10:41.351Z,3356.00
2018-03-14T09:11:41.334Z,3148.00
2018-03-14T09:13:41.286Z,2832.00
2018-03-14T09:14:41.320Z,2748.00
2018-03-14T09:15:41.637Z,2652.00
2018-03-14T09:16:41.226Z,2172.00
2018-03-14T09:17:41.578Z,2064.00
2018-03-14T09:18:41.181Z,1992.00
2018-03-14T09:19:41.167Z,1876.00
2018-03-14T09:20:41.302Z,1684.00
2018-03-14T09:21:41.136Z,1480.00
2018-03-14T09:22:41.414Z,1616.00
2018-03-14T09:23:41.087Z,1572.00
2018-03-14T09:24:41.072Z,1536.00
2018-03-14T09:25:41.041Z,1408.00
2018-03-14T09:26:41.076Z,1360.00
2018-03-14T09:27:41.005Z,1364.00
2018-03-14T09:28:41.096Z,1344.00
2018-03-14T09:30:41.326Z,1188.00
2018-03-14T09:31:41.006Z,1092.00
2018-03-14T09:32:40.933Z,1040.00
2018-03-14T09:33:40.964Z,1032.00
2018-03-14T09:34:40.856Z,1256.00
2018-03-14T09:35:40.828Z,1548.00
2018-03-14T09:36:40.796Z,1808.00
2018-03-14T09:37:41.091Z,2024.00
2018-03-14T09:38:40.804Z,2056.00
2018-03-14T09:39:40.741Z,2056.00
2018-03-14T09:40:40.717Z,2052.00
2018-03-14T09:41:40.704Z,2176.00
2018-03-14T09:43:40.961Z,1956.00
2018-03-14T09:44:40.678Z,1860.00
2018-03-14T09:45:40.677Z,1964.00
2018-03-14T09:46:40.591Z,2372.00
2018-03-14T09:47:40.566Z,2840.00
2018-03-14T09:48:40.633Z,3232.00
2018-03-14T09:50:40.885Z,4480.00
2018-03-14T09:51:40.494Z,5104.00
2018-03-14T09:52:40.470Z,5416.00
2018-03-14T09:53:40.452Z,5264.00
2018-03-14T09:54:40.427Z,5820.00
2018-03-14T09:55:40.408Z,7012.00
2018-03-14T09:56:40.725Z,8092.00
2018-03-14T09:58:40.333Z,9100.00
2018-03-14T09:59:40.334Z,9304.00
2018-03-14T10:00:40.303Z,9608.00
2018-03-14T10:01:40.415Z,9700.00
2018-03-14T10:02:40.695Z,9812.00
2018-03-14T10:03:40.243Z,10360.00
2018-03-14T10:04:40.303Z,10808.00
2018-03-14T10:05:40.269Z,10880.00
2018-03-14T10:06:40.260Z,10324.00
2018-03-14T10:07:40.226Z,10360.00
2018-03-14T10:08:40.556Z,10432.00
2018-03-14T10:09:40.148Z,11172.00
2018-03-14T10:10:40.168Z,11400.00
2018-03-14T10:11:40.147Z,10544.00
2018-03-14T10:12:40.046Z,9744.00
2018-03-14T10:13:40.030Z,9708.00
2018-03-14T10:14:40.362Z,10384.00
2018-03-14T10:15:39.995Z,11280.00
2018-03-14T10:16:39.983Z,10592.00
2018-03-14T10:17:40.012Z,9408.00
2018-03-14T10:19:39.922Z,9336.00
2018-03-14T10:20:39.982Z,9700.00
2018-03-14T10:21:40.184Z,10220.00
2018-03-14T10:22:39.864Z,11004.00
2018-03-14T10:23:39.859Z,12012.00
2018-03-14T10:24:39.821Z,12384.00
2018-03-14T10:25:39.942Z,12240.00
2018-03-14T10:26:39.833Z,11780.00
2018-03-14T10:27:39.870Z,11132.00
2018-03-14T10:28:40.045Z,10660.00
2018-03-14T10:29:39.728Z,9772.00
2018-03-14T10:30:39.709Z,8832.00
2018-03-14T10:31:39.694Z,8564.00
2018-03-14T10:32:40.020Z,8764.00
2018-03-14T10:33:39.656Z,9092.00
2018-03-14T10:34:39.640Z,9236.00
2018-03-14T10:35:39.923Z,9300.00
2018-03-14T10:36:39.598Z,9372.00
2018-03-14T10:37:39.587Z,9444.00
2018-03-14T10:38:39.605Z,9488.00
2018-03-14T10:39:39.585Z,9992.00
2018-03-14T10:40:39.901Z,10896.00
2018-03-14T10:41:39.506Z,12216.00
2018-03-14T10:42:39.849Z,13840.00
2018-03-14T10:43:39.474Z,14840.00
2018-03-14T10:44:39.500Z,15692.00
2018-03-14T10:45:39.439Z,18464.00
2018-03-14T10:46:39.411Z,15416.00
2018-03-14T10:47:39.492Z,14256.00
2018-03-14T10:48:39.377Z,13544.00
2018-03-14T10:49:39.751Z,12724.00
2018-03-14T10:51:39.383Z,10860.00
2018-03-14T10:52:39.317Z,10160.00
2018-03-14T10:53:39.323Z,9788.00
2018-03-14T10:54:39.289Z,9868.00
2018-03-14T10:55:39.266Z,10212.00
2018-03-14T10:56:39.547Z,10568.00
2018-03-14T10:57:39.276Z,10544.00
2018-03-14T10:58:39.248Z,10420.00
2018-03-14T10:59:39.197Z,10456.00
2018-03-14T11:00:39.179Z,10408.00
2018-03-14T11:01:39.170Z,10320.00
2018-03-14T11:02:39.202Z,10380.00
2018-03-14T11:03:39.483Z,10436.00
2018-03-14T11:04:39.121Z,10168.00
2018-03-14T11:05:39.105Z,9964.00
2018-03-14T11:06:39.081Z,10240.00
2018-03-14T11:07:39.062Z,10976.00
2018-03-14T11:08:39.044Z,11496.00
2018-03-14T11:10:39.380Z,11560.00
2018-03-14T11:11:38.993Z,11304.00
2018-03-14T11:12:38.973Z,11048.00
2018-03-14T11:13:38.961Z,11104.00
2018-03-14T11:14:38.937Z,11280.00
2018-03-14T11:15:38.935Z,11288.00
2018-03-14T11:16:39.416Z,11432.00
2018-03-14T11:17:38.915Z,11808.00
2018-03-14T11:18:38.888Z,12128.00
2018-03-14T11:19:38.870Z,12168.00
2018-03-14T11:20:38.851Z,11780.00
2018-03-14T11:21:38.869Z,11072.00
2018-03-14T11:22:39.170Z,10252.00
2018-03-14T11:23:38.797Z,9716.00
2018-03-14T11:24:38.796Z,9368.00
2018-03-14T11:25:38.780Z,8964.00
2018-03-14T11:26:38.750Z,8480.00
2018-03-14T11:27:39.032Z,7960.00
2018-03-14T11:28:39.170Z,7620.00
2018-03-14T11:29:38.710Z,7632.00
2018-03-14T11:30:38.698Z,7820.00
2018-03-14T11:31:38.678Z,8092.00
2018-03-14T11:32:38.666Z,8372.00
2018-03-14T11:33:38.647Z,8600.00
2018-03-14T11:34:39.076Z,8772.00
2018-03-14T11:36:38.646Z,8760.00
2018-03-14T11:37:38.570Z,8628.00
2018-03-14T11:38:38.650Z,8492.00
2018-03-14T11:39:38.636Z,8544.00
2018-03-14T11:40:38.905Z,8688.00
2018-03-14T11:41:38.588Z,9044.00
2018-03-14T11:42:38.649Z,9428.00
2018-03-14T11:43:38.491Z,9880.00
2018-03-14T11:45:38.447Z,10668.00
2018-03-14T11:46:38.485Z,10744.00
2018-03-14T11:47:39.009Z,10636.00
2018-03-14T11:48:38.399Z,10428.00
2018-03-14T11:49:38.684Z,10252.00
2018-03-14T11:50:38.382Z,10104.00
2018-03-14T11:51:38.343Z,9920.00
2018-03-14T11:53:38.666Z,9948.00
2018-03-14T11:54:38.301Z,9728.00
2018-03-14T11:55:38.284Z,9460.00
2018-03-14T11:56:38.264Z,9228.00
2018-03-14T11:57:38.267Z,9168.00
2018-03-14T11:58:38.308Z,9200.00
2018-03-14T11:59:38.378Z,9216.00
2018-03-14T12:00:38.582Z,9208.00
2018-03-14T12:01:38.274Z,9212.00
2018-03-14T12:02:38.283Z,8948.00
2018-03-14T12:03:38.160Z,8624.00
2018-03-14T12:04:38.139Z,8588.00
2018-03-14T12:05:38.220Z,8740.00
2018-03-14T12:06:38.119Z,8968.00
2018-03-14T12:07:38.467Z,9108.00
2018-03-14T12:08:38.146Z,9200.00
2018-03-14T12:09:38.135Z,9396.00
2018-03-14T12:10:38.125Z,9540.00
2018-03-14T12:11:38.072Z,9696.00
2018-03-14T12:12:38.162Z,9544.00
2018-03-14T12:13:38.176Z,9132.00
2018-03-14T12:14:38.361Z,8724.00
2018-03-14T12:15:38.070Z,8480.00
2018-03-14T12:18:41.096Z,8212.00
2018-03-14T12:19:43.069Z,8208.00
2018-03-14T12:20:38.705Z,8068.00
2018-03-14T12:22:37.900Z,7852.00
2018-03-14T12:23:37.888Z,7832.00
2018-03-14T12:24:37.833Z,7856.00
2018-03-14T12:25:37.820Z,7800.00
2018-03-14T12:27:38.063Z,7504.00
2018-03-14T12:28:38.659Z,7416.00
2018-03-14T12:29:37.735Z,7440.00
2018-03-14T12:30:37.713Z,7648.00
2018-03-14T12:31:37.793Z,8040.00
2018-03-14T12:32:37.685Z,8612.00
2018-03-14T12:33:37.662Z,8988.00
2018-03-14T12:34:37.993Z,8980.00
2018-03-14T12:35:37.636Z,8824.00
2018-03-14T12:36:37.662Z,8728.00
2018-03-14T12:37:37.596Z,8636.00
2018-03-14T12:38:37.753Z,8468.00
2018-03-14T12:40:48.474Z,7980.00
2018-03-14T12:41:37.604Z,7720.00
2018-03-14T12:43:37.689Z,7244.00
2018-03-14T12:44:37.561Z,7156.00
2018-03-14T12:45:37.525Z,7104.00
2018-03-14T12:46:37.571Z,7060.00
2018-03-14T12:47:37.814Z,7032.00
2018-03-14T12:48:37.414Z,7064.00
2018-03-14T12:49:37.468Z,7088.00
2018-03-14T12:50:37.372Z,7020.00
2018-03-14T12:51:37.356Z,6920.00
2018-03-14T12:52:37.393Z,6816.00
2018-03-14T12:53:37.630Z,6696.00
2018-03-14T12:54:37.368Z,6592.00
2018-03-14T12:55:37.340Z,6428.00
2018-03-14T12:56:37.283Z,6144.00
2018-03-14T12:57:37.280Z,5800.00
2018-03-14T12:58:37.283Z,5396.00
2018-03-14T12:59:37.517Z,4992.00
2018-03-14T13:00:37.196Z,4660.00
2018-03-14T13:03:37.156Z,4020.00
2018-03-14T13:04:37.186Z,3948.00
2018-03-14T13:05:37.417Z,3868.00
2018-03-14T13:06:37.094Z,3760.00
2018-03-14T13:07:37.072Z,3632.00
2018-03-14T13:08:37.059Z,3480.00
2018-03-14T13:09:37.098Z,3284.00
2018-03-14T13:10:37.076Z,3124.00
2018-03-14T13:11:37.347Z,2988.00
2018-03-14T13:12:36.983Z,2888.00
2018-03-14T13:13:36.968Z,2836.00
2018-03-14T13:15:36.933Z,2944.00
2018-03-14T13:17:37.236Z,3332.00
2018-03-14T13:18:36.876Z,3528.00
2018-03-14T13:19:36.912Z,3740.00
2018-03-14T13:20:36.835Z,3908.00
2018-03-14T13:21:37.514Z,4012.00
2018-03-14T13:22:36.909Z,4076.00
2018-03-14T13:23:36.826Z,4076.00
2018-03-14T13:24:37.149Z,4028.00
2018-03-14T13:25:36.830Z,4044.00
2018-03-14T13:26:36.732Z,4152.00
2018-03-14T13:27:36.711Z,4336.00
2018-03-14T13:28:36.910Z,4488.00
2018-03-14T13:29:36.732Z,4600.00
2018-03-14T13:30:36.650Z,4664.00
2018-03-14T13:31:36.645Z,4716.00
2018-03-14T13:32:36.612Z,4708.00
2018-03-14T13:33:36.593Z,4644.00